Umar1 — 9HA2498 — position and weather

sailwx.info

Track history (hours):
 
Tides and Currents Weather Stations Pressure Air Temp Water Temp Dewpoint Dewpoint Depression Visibility Wind Speed Wind Dir Waves Ship Positions

Umar1

Last reported at 2014-Jul-31 00:05 UTC. Time now 2014-Jul-31 01:21 UTC.
Position N 39°58' E 000°05'.

Length 100 m; draft 4.9 m.

Type: Ship. MMSI: 248751000.

Date/timePositionNaut miles runAvg speedWind from/ knotsBaromVisibWave heightAir tempDewpointWater temp
2014-Jul-31 00:05N 39°58' E 000°05'0 0.0
2014-Jul-30 23:29N 39°58' E 000°05'  
2014-Jul-28 12:32N 39°43' E 000°14'4511.3
2014-Jul-28 08:32N 39°02' E 000°38'1511.6
2014-Jul-28 07:14N 38°48' E 000°46'811.6
2014-Jul-28 06:33N 38°41' E 000°50'1211.7
2014-Jul-28 05:33N 38°31' E 000°57'1611.7
2014-Jul-28 04:13N 38°17' E 001°06'3111.8
2014-Jul-28 01:33N 37°49' E 001°24'1511.9
2014-Jul-28 00:20N 37°36' E 001°33'1212.2
2014-Jul-27 23:23N 37°25' E 001°39'34 5.6
2014-Jul-27 17:19N 37°07' E 001°03'9 9.6
2014-Jul-27 16:21N 37°16' E 000°58'3411.1
2014-Jul-27 13:14N 37°49' E 000°47'811.2
2014-Jul-27 12:30N 37°57' E 000°45'9910.9
2014-Jul-27 03:27N 39°25' W 000°15'4 0.1
2014-Jul-25 20:27N 39°27' W 000°19'6 5.7
2014-Jul-25 19:28N 39°23' W 000°13'94 8.6
2014-Jul-25 08:32N 37°49' W 000°18'1010.2
2014-Jul-25 07:32N 37°41' W 000°25'4310.1
2014-Jul-25 03:17N 37°10' W 001°03'810.2
2014-Jul-25 02:28N 37°05' W 001°11'1010.6
2014-Jul-25 01:33N 36°58' W 001°20'10 9.9
2014-Jul-25 00:33N 36°52' W 001°29'2310.3
2014-Jul-24 22:21N 36°37' W 001°50'1310.9
2014-Jul-24 21:12N 36°29' W 002°02'16211.6
2014-Jul-24 07:13N 35°59' W 005°20'6911.7
2014-Jul-24 01:19N 35°60' W 006°44'910.8
2014-Jul-24 00:32N 36°02' W 006°55'2110.5
2014-Jul-23 22:33N 36°07' W 007°20'1110.6
2014-Jul-23 21:33N 36°09' W 007°32'1110.9
2014-Jul-23 20:33N 36°12' W 007°46'1110.8
2014-Jul-23 19:33N 36°14' W 007°59'1110.8
2014-Jul-23 18:33N 36°17' W 008°12'1110.9
2014-Jul-23 17:33N 36°19' W 008°25'1110.6
2014-Jul-23 16:33N 36°22' W 008°38'1010.4
2014-Jul-23 15:33N 36°24' W 008°50'1010.3
2014-Jul-23 14:33N 36°26' W 009°03'1110.5
2014-Jul-23 13:32N 36°29' W 009°16'1010.2
2014-Jul-23 12:33N 36°35' W 009°26'1110.8
2014-Jul-23 11:33N 36°43' W 009°35'1010.4
2014-Jul-23 10:33N 36°52' W 009°40'1010.5
2014-Jul-23 09:33N 37°03' W 009°43'1110.9
2014-Jul-23 08:33N 37°13' W 009°46'1110.7
2014-Jul-23 07:33N 37°24' W 009°49'1110.8
2014-Jul-23 06:33N 37°34' W 009°52'1110.8
2014-Jul-23 05:33N 37°45' W 009°55'1110.6
2014-Jul-23 04:32N 37°55' W 009°59'1110.9
2014-Jul-23 03:33N 38°06' W 010°02'1111.2
2014-Jul-23 02:33N 38°17' W 010°05'1111.0
2014-Jul-23 01:32N 38°27' W 010°08'1010.5
2014-Jul-23 00:32N 38°38' W 010°11'1111.0
2014-Jul-22 23:33N 38°48' W 010°12'1411.3
2014-Jul-22 22:20N 39°02' W 010°12'911.4
2014-Jul-22 21:32N 39°11' W 010°12'1211.1
2014-Jul-22 20:27N 39°23' W 010°12'1011.2
2014-Jul-22 19:33N 39°33' W 010°12'1110.9
2014-Jul-22 18:33N 39°44' W 010°12'1411.2
2014-Jul-22 17:20N 39°58' W 010°12'911.1
2014-Jul-22 16:33N 40°07' W 010°12'1111.4
2014-Jul-22 15:33N 40°18' W 010°12'  
Track history (hours):
 
Tides and Currents Weather Stations Pressure Air Temp Water Temp Dewpoint Dewpoint Depression Visibility Wind Speed Wind Dir Waves Ship Positions

Umar1

Last reported at 2014-Jul-31 00:05 UTC. Time now 2014-Jul-31 01:21 UTC.
Position N 39°58' E 000°05'.

Length 100 m; draft 4.9 m.

Type: Ship. MMSI: 248751000.

Date/timePositionNaut miles runAvg speedWind from/ knotsBaromVisibWave heightAir tempDewpointWater temp
2014-Jul-31 00:05N 39°58' E 000°05'0 0.0
2014-Jul-30 23:29N 39°58' E 000°05'  
2014-Jul-28 12:32N 39°43' E 000°14'4511.3
2014-Jul-28 08:32N 39°02' E 000°38'1511.6
2014-Jul-28 07:14N 38°48' E 000°46'811.6
2014-Jul-28 06:33N 38°41' E 000°50'1211.7
2014-Jul-28 05:33N 38°31' E 000°57'1611.7
2014-Jul-28 04:13N 38°17' E 001°06'3111.8
2014-Jul-28 01:33N 37°49' E 001°24'1511.9
2014-Jul-28 00:20N 37°36' E 001°33'1212.2
2014-Jul-27 23:23N 37°25' E 001°39'34 5.6
2014-Jul-27 17:19N 37°07' E 001°03'9 9.6
2014-Jul-27 16:21N 37°16' E 000°58'3411.1
2014-Jul-27 13:14N 37°49' E 000°47'811.2
2014-Jul-27 12:30N 37°57' E 000°45'9910.9
2014-Jul-27 03:27N 39°25' W 000°15'4 0.1
2014-Jul-25 20:27N 39°27' W 000°19'6 5.7
2014-Jul-25 19:28N 39°23' W 000°13'94 8.6
2014-Jul-25 08:32N 37°49' W 000°18'1010.2
2014-Jul-25 07:32N 37°41' W 000°25'4310.1
2014-Jul-25 03:17N 37°10' W 001°03'810.2
2014-Jul-25 02:28N 37°05' W 001°11'1010.6
2014-Jul-25 01:33N 36°58' W 001°20'10 9.9
2014-Jul-25 00:33N 36°52' W 001°29'2310.3
2014-Jul-24 22:21N 36°37' W 001°50'1310.9
2014-Jul-24 21:12N 36°29' W 002°02'16211.6
2014-Jul-24 07:13N 35°59' W 005°20'6911.7
2014-Jul-24 01:19N 35°60' W 006°44'910.8
2014-Jul-24 00:32N 36°02' W 006°55'2110.5
2014-Jul-23 22:33N 36°07' W 007°20'1110.6
2014-Jul-23 21:33N 36°09' W 007°32'1110.9
2014-Jul-23 20:33N 36°12' W 007°46'1110.8
2014-Jul-23 19:33N 36°14' W 007°59'1110.8
2014-Jul-23 18:33N 36°17' W 008°12'1110.9
2014-Jul-23 17:33N 36°19' W 008°25'1110.6
2014-Jul-23 16:33N 36°22' W 008°38'1010.4
2014-Jul-23 15:33N 36°24' W 008°50'1010.3
2014-Jul-23 14:33N 36°26' W 009°03'1110.5
2014-Jul-23 13:32N 36°29' W 009°16'1010.2
2014-Jul-23 12:33N 36°35' W 009°26'1110.8
2014-Jul-23 11:33N 36°43' W 009°35'1010.4
2014-Jul-23 10:33N 36°52' W 009°40'1010.5
2014-Jul-23 09:33N 37°03' W 009°43'1110.9
2014-Jul-23 08:33N 37°13' W 009°46'1110.7
2014-Jul-23 07:33N 37°24' W 009°49'1110.8
2014-Jul-23 06:33N 37°34' W 009°52'1110.8
2014-Jul-23 05:33N 37°45' W 009°55'1110.6
2014-Jul-23 04:32N 37°55' W 009°59'1110.9
2014-Jul-23 03:33N 38°06' W 010°02'1111.2
2014-Jul-23 02:33N 38°17' W 010°05'1111.0
2014-Jul-23 01:32N 38°27' W 010°08'1010.5
2014-Jul-23 00:32N 38°38' W 010°11'1111.0
2014-Jul-22 23:33N 38°48' W 010°12'1411.3
2014-Jul-22 22:20N 39°02' W 010°12'911.4
2014-Jul-22 21:32N 39°11' W 010°12'1211.1
2014-Jul-22 20:27N 39°23' W 010°12'1011.2
2014-Jul-22 19:33N 39°33' W 010°12'1110.9
2014-Jul-22 18:33N 39°44' W 010°12'1411.2
2014-Jul-22 17:20N 39°58' W 010°12'911.1
2014-Jul-22 16:33N 40°07' W 010°12'1111.4
2014-Jul-22 15:33N 40°18' W 010°12'  

Dump ship's entire track history